Flight Track Log - Related Links

Times and Time Zones

All times are in EST time to prevent confusion due to time zone crossing. See the UCA596 flight status page for this flight to view local times or setup timezone preferences in your user account.

Time Position Orientation Groundspeed Altitude Reporting Facility
EST Latitude Longitude Course Direction KTS MPH feet Rate Location/Type
Tue 01:41:18 PM 38.9667 -77.5000 322° Northwest 157 181 2,300  Level Potomac TRACON
Tue 01:42:18 PM 39.0000 -77.5333 322° Northwest 153 176 4,300 2,050 Climbing Potomac TRACON
Tue 01:43:18 PM 39.0333 -77.5667 322° Northwest 156 180 6,400 1,598 Climbing Potomac TRACON
Tue 01:45:22 PM 39.1250 -77.5367 14° North 191 220 9,200 1,337 Climbing Washington Center
Tue 01:46:22 PM 39.1750 -77.5328 North 177 204 10,500 1,271 Climbing Washington Center
Tue 01:47:20 PM 39.2253 -77.5233 North 182 209 11,700 1,220 Climbing Washington Center
Tue 01:48:20 PM 39.2775 -77.5167 North 182 209 12,900 1,240 Climbing Washington Center
Tue 01:49:21 PM 39.3317 -77.5072 North 182 209 14,200 1,388 Climbing Washington Center
Tue 01:50:21 PM 39.3861 -77.4981 North 187 215 15,700 1,380 Climbing Washington Center
Tue 01:52:28 PM 39.5078 -77.4797 North 203 234 18,500 1,059 Climbing New York Center
Tue 01:53:28 PM 39.5686 -77.4719 North 203 234 19,000 250 Climbing New York Center
Tue 01:54:28 PM 39.6342 -77.4539 12° North 222 255 19,000  Level New York Center
Tue 01:55:28 PM 39.6947 -77.4544 360° North 236 272 19,000  Level New York Center
Tue 01:56:28 PM 39.7719 -77.4536 360° North 236 272 19,000  Level New York Center
Tue 01:57:28 PM 39.8303 -77.4536 360° North 236 272 19,000  Level New York Center
Tue 01:58:28 PM 39.9078 -77.4503 North 236 272 19,000  Level New York Center
Tue 01:59:28 PM 39.9681 -77.4533 358° North 241 277 19,000  Level New York Center
Tue 02:00:28 PM 40.0456 -77.4472 North 241 277 19,000  Level New York Center
Tue 02:01:28 PM 40.1039 -77.4472 360° North 241 277 19,000  Level New York Center
Tue 02:02:28 PM 40.1800 -77.4275 11° North 236 272 19,000  Level New York Center
Tue 02:03:28 PM 40.2406 -77.3897 25° Northeast 255 293 19,000  Level New York Center
Tue 02:04:28 PM 40.3161 -77.3425 25° Northeast 266 306 19,000  Level New York Center
Tue 02:05:28 PM 40.3744 -77.3044 26° Northeast 266 306 19,000  Level New York Center
Tue 02:06:28 PM 40.4506 -77.2517 28° Northeast 271 312 19,000  Level New York Center
Tue 02:07:28 PM 40.5089 -77.2108 28° Northeast 271 312 19,000  Level New York Center
Tue 02:08:28 PM 40.5806 -77.1600 28° Northeast 271 312 19,000  Level New York Center
Tue 02:09:28 PM 40.6389 -77.1189 28° Northeast 271 312 19,000  Level New York Center
Tue 02:10:28 PM 40.7039 -77.0731 28° Northeast 271 312 19,000  Level New York Center
Tue 02:11:28 PM 40.7689 -77.0269 28° Northeast 266 306 19,000  Level New York Center
Tue 02:12:28 PM 40.8383 -76.9783 28° Northeast 266 306 19,000  Level New York Center
Tue 02:13:28 PM 40.8986 -76.9397 26° Northeast 266 306 19,000 -150 Level New York Center
Tue 02:14:28 PM 40.9617 -76.8906 30° Northeast 261 300 18,700 -500 Descending New York Center
Tue 02:15:28 PM 41.0286 -76.8444 27° Northeast 261 300 18,000 -350 Descending New York Center
Tue 02:16:28 PM 41.0914 -76.7975 29° Northeast 261 300 18,000  Level New York Center
Tue 02:17:28 PM 41.1561 -76.7539 27° Northeast 261 300 18,000 -200 Level New York Center
Tue 02:18:28 PM 41.2208 -76.7069 29° Northeast 261 300 17,600 -950 Descending New York Center
Tue 02:19:28 PM 41.2925 -76.6497 31° Northeast 261 300 16,100 -1,200 Descending New York Center
Tue 02:20:28 PM 41.3531 -76.6081 27° Northeast 261 300 15,200 -550 Descending New York Center
Tue 02:21:28 PM 41.4197 -76.5614 28° Northeast 268 308 15,000 -100 Descending New York Center
Tue 02:22:28 PM 41.4889 -76.5092 29° Northeast 268 308 15,000  Level New York Center
Tue 02:23:28 PM 41.5514 -76.4675 27° Northeast 258 297 15,000 -500 Level New York Center
Tue 02:24:28 PM 41.6161 -76.4203 29° Northeast 258 297 14,000 -1,000 Descending New York Center
Tue 02:25:28 PM 41.6744 -76.3750 30° Northeast 263 303 13,000 -950 Descending New York Center
Tue 02:26:28 PM 41.7414 -76.3250 29° Northeast 271 312 12,100 -950 Descending New York Center
Tue 02:27:28 PM 41.8075 -76.2472 41° Northeast 282 325 11,100 -1,150 Descending New York Center
Tue 02:28:28 PM 41.8569 -76.1706 49° Northeast 282 325 9,800 -1,750 Descending New York Center
Tue 02:29:28 PM 41.8881 -76.0756 66° East 269 310 7,600 -2,000 Descending New York Center
Tue 02:30:28 PM 41.9189 -75.9944 63° Northeast 269 310 5,800 -1,250 Descending New York Center
Tue 02:31:28 PM 41.9539 -75.9050 62° Northeast 269 310 5,100 -350 Descending New York Center
Tue 02:32:28 PM 41.9928 -75.8272 56° Northeast 244 281 5,100  Level New York Center
Tue 02:33:28 PM 42.0400 -75.8419 347° North 172 198 5,100 -50 Level New York Center
Tue 02:34:28 PM 42.0722 -75.8667 330° Northwest 132 152 5,000 -400 Descending New York Center
Tue 02:35:28 PM 42.1003 -75.8914 327° Northwest 127 146 4,300 -750 Descending New York Center
Tue 02:36:28 PM 42.1283 -75.9131 330° Northwest 122 140 3,500 -750 Descending New York Center
Tue 02:37:28 PM 42.1567 -75.9375 327° Northwest 122 140 2,800 -700 Descending New York Center
Tue 02:39:00 PM 42.2000 -75.9667 334° Northwest  Level FlightAware Approximate
Tue 02:46:00 PM 42.2084 -75.9796 334° Northwest  Level Estimated
Tue 02:47:00 PM 42.2084 -75.9796 334° Northwest  Level Estimated
Tue 02:48:00 PM 42.2084 -75.9796 334° Northwest  Level Estimated
Tue 02:49:00 PM 42.2084 -75.9796 334° Northwest  Level Estimated
Tue 02:50:00 PM 42.2084 -75.9796 334° Northwest  Level Estimated

Login

Don't have an account? Register now (free) for customized features, flight alerts, and more!